Wabush, Canada
Current Conditions -  °F | °C
As of 12:00 AM on Monday 26 Jan 2015 (Local Time) from CYWK Reporting Station
Clear Clear  
Wind Chill: -38°   Ceiling: Unl
Heat Index: -15°   Visibility: 9mi
Dew Point: -22°   Wind: 14mph
Humidity: 70%   Direction: 310°NW
Pressure: 29.36"   Gusts: 22mph
Location:  52.9°N, 66.87°W
Report Text: CYWK 260400Z AUTO 31012G19KT 9SM CLR M26/M30 A2936 RMK SLP998
Loading
Personal Weather Stations






























Interactive Weather Map New forecast layout! Learn more

10-Day Weather Forecast

Advertisements
Track Severe Weather on mobile